Time;durP1;ratioP1;P1;durP2;ratioP2;P2;SDS_P1;SDS_P2;PMS_P1;PMS_P2;Temp;Humidity;BMP_temperature;BMP_pressure;BME280_temperature;BME280_humidity;BME280_pressure;Samples;Min_cycle;Max_cycle;Signal;HPM_P1;HPM_P2
2021/09/25 00:01:42;;;;;;;7.55;5.90;;;;;;;;;;5014457;28;20487;-44
2021/09/25 00:04:09;;;;;;;7.60;5.50;;;;;;;;;;5014292;28;20038;-42
2021/09/25 00:06:36;;;;;;;7.25;5.50;;;;;;;;;;5014078;28;20403;-44
2021/09/25 00:09:03;;;;;;;9.45;6.22;;;;;;;;;;5014212;28;20066;-43
2021/09/25 00:11:30;;;;;;;7.63;6.00;;;;;;;;;;5014380;28;20096;-42
2021/09/25 00:13:57;;;;;;;8.07;6.20;;;;;;;;;;5014244;28;20514;-42
2021/09/25 00:16:26;;;;;;;7.28;5.68;;;;;;;;;;5013979;28;20102;-43
2021/09/25 00:18:54;;;;;;;7.80;5.97;;;;;;;;;;5012586;28;20093;-43
2021/09/25 00:21:21;;;;;;;7.22;5.85;;;;;;;;;;5014100;28;20129;-42
2021/09/25 00:23:48;;;;;;;9.48;6.07;;;;;;;;;;5028917;28;20037;-42
2021/09/25 00:26:14;;;;;;;8.55;6.30;;;;;;;;;;5029121;28;20439;-42
2021/09/25 00:28:41;;;;;;;7.95;6.28;;;;;;;;;;5013969;28;20092;-43
2021/09/25 00:31:08;;;;;;;7.32;5.82;;;;;;;;;;5013914;28;20540;-42
2021/09/25 00:33:35;;;;;;;7.03;5.50;;;;;;;;;;5012442;28;20069;-46
2021/09/25 00:36:02;;;;;;;6.25;5.10;;;;;;;;;;5013738;28;20065;-43
2021/09/25 00:38:29;;;;;;;7.93;6.28;;;;;;;;;;5014055;28;20507;-45
2021/09/25 00:40:56;;;;;;;7.80;5.78;;;;;;;;;;5012499;28;20053;-42
2021/09/25 00:43:25;;;;;;;7.53;5.63;;;;;;;;;;5029710;28;20050;-43
2021/09/25 00:45:52;;;;;;;8.10;6.03;;;;;;;;;;5033012;28;20133;-42
2021/09/25 00:48:19;;;;;;;7.20;5.78;;;;;;;;;;5014601;28;20042;-44
2021/09/25 00:50:46;;;;;;;7.70;5.57;;;;;;;;;;5015173;28;20050;-44
2021/09/25 00:53:12;;;;;;;8.45;6.53;;;;;;;;;;5026157;28;20069;-44
2021/09/25 00:55:39;;;;;;;7.78;6.20;;;;;;;;;;5015913;28;20108;-45
2021/09/25 00:58:06;;;;;;;7.55;5.50;;;;;;;;;;5013488;28;20129;-43
2021/09/25 01:00:34;;;;;;;7.13;5.70;;;;;;;;;;5012970;28;20112;-42
2021/09/25 01:03:01;;;;;;;6.78;5.53;;;;;;;;;;5013403;28;20037;-44
2021/09/25 01:05:28;;;;;;;7.88;5.47;;;;;;;;;;5013256;28;20137;-47
2021/09/25 01:07:56;;;;;;;7.80;5.68;;;;;;;;;;5013118;28;20053;-46
2021/09/25 01:10:23;;;;;;;8.23;6.10;;;;;;;;;;5012027;28;20464;-45
2021/09/25 01:12:50;;;;;;;8.45;5.97;;;;;;;;;;5011975;28;20048;-43
2021/09/25 01:15:17;;;;;;;8.32;5.68;;;;;;;;;;5028121;28;20073;-46
2021/09/25 01:17:44;;;;;;;32.00;7.68;;;;;;;;;;5012956;28;20121;-47
2021/09/25 01:20:11;;;;;;;8.25;5.55;;;;;;;;;;5013117;28;20446;-45
2021/09/25 01:22:38;;;;;;;8.93;6.07;;;;;;;;;;5011837;28;20454;-44
2021/09/25 01:25:09;;;;;;;7.13;5.93;;;;;;;;;;5027760;28;20092;-43
2021/09/25 01:27:36;;;;;;;8.02;5.90;;;;;;;;;;5011589;28;20050;-44
2021/09/25 01:30:05;;;;;;;8.25;5.80;;;;;;;;;;5012764;28;20042;-43
2021/09/25 01:32:32;;;;;;;7.47;6.03;;;;;;;;;;5013024;28;20475;-44
2021/09/25 01:34:59;;;;;;;9.65;6.03;;;;;;;;;;5011441;28;20077;-47
2021/09/25 01:37:26;;;;;;;7.20;6.30;;;;;;;;;;5012669;28;20097;-47
2021/09/25 01:39:53;;;;;;;7.55;5.35;;;;;;;;;;5012544;28;20133;-43
2021/09/25 01:42:19;;;;;;;7.70;5.80;;;;;;;;;;5012590;28;20454;-47
2021/09/25 01:44:49;;;;;;;9.23;6.22;;;;;;;;;;5024296;28;20048;-44
2021/09/25 01:47:16;;;;;;;10.75;6.53;;;;;;;;;;5030469;28;20080;-44
2021/09/25 01:49:46;;;;;;;7.45;6.07;;;;;;;;;;5031100;28;20045;-45
2021/09/25 01:52:13;;;;;;;8.15;6.15;;;;;;;;;;5032202;28;20128;-43
2021/09/25 01:54:40;;;;;;;7.45;5.97;;;;;;;;;;5019497;28;20049;-46
2021/09/25 01:57:07;;;;;;;7.55;5.65;;;;;;;;;;5012473;28;20073;-44
2021/09/25 01:59:34;;;;;;;8.93;6.07;;;;;;;;;;5012387;28;20072;-47
2021/09/25 02:02:05;;;;;;;7.78;5.70;;;;;;;;;;5027612;28;20526;-44
2021/09/25 02:04:33;;;;;;;7.65;5.95;;;;;;;;;;5010801;28;20132;-43
2021/09/25 02:07:00;;;;;;;7.65;5.72;;;;;;;;;;5027777;28;20046;-46
2021/09/25 02:09:27;;;;;;;9.00;6.18;;;;;;;;;;5012211;28;20065;-43
2021/09/25 02:11:54;;;;;;;6.65;5.60;;;;;;;;;;5011744;28;20073;-43
2021/09/25 02:14:20;;;;;;;7.30;5.47;;;;;;;;;;5012027;28;20096;-45
2021/09/25 02:16:47;;;;;;;7.20;5.60;;;;;;;;;;5013167;28;20042;-48
2021/09/25 02:19:14;;;;;;;6.25;5.20;;;;;;;;;;5027951;28;20136;-45
2021/09/25 02:21:41;;;;;;;7.13;5.22;;;;;;;;;;5012276;28;20609;-42
2021/09/25 02:24:08;;;;;;;7.88;5.93;;;;;;;;;;5011876;28;20050;-44
2021/09/25 02:26:34;;;;;;;8.00;5.57;;;;;;;;;;5011866;28;20054;-44
2021/09/25 02:29:01;;;;;;;9.80;5.63;;;;;;;;;;5012345;28;20133;-43
2021/09/25 02:31:28;;;;;;;7.45;5.70;;;;;;;;;;5010916;28;20474;-42
2021/09/25 02:33:55;;;;;;;9.63;5.53;;;;;;;;;;5011853;28;20128;-44
2021/09/25 02:36:22;;;;;;;8.45;5.68;;;;;;;;;;5012086;28;20077;-46
2021/09/25 02:38:48;;;;;;;7.45;5.40;;;;;;;;;;5011745;28;20102;-46
2021/09/25 02:41:15;;;;;;;7.43;5.50;;;;;;;;;;5011961;28;20073;-44
2021/09/25 02:43:43;;;;;;;8.45;5.50;;;;;;;;;;5014867;28;20060;-45
2021/09/25 02:46:10;;;;;;;6.78;5.22;;;;;;;;;;5029374;28;20054;-44
2021/09/25 02:48:36;;;;;;;7.32;5.45;;;;;;;;;;5011843;28;20038;-43
2021/09/25 02:51:03;;;;;;;6.15;4.97;;;;;;;;;;5011998;28;20042;-44
2021/09/25 02:53:30;;;;;;;7.45;5.60;;;;;;;;;;5011464;28;20451;-45
2021/09/25 02:55:57;;;;;;;6.75;5.38;;;;;;;;;;5011506;28;20065;-43
2021/09/25 02:58:24;;;;;;;8.70;5.57;;;;;;;;;;5011540;28;20076;-46
2021/09/25 03:00:51;;;;;;;7.88;5.57;;;;;;;;;;5026703;28;20058;-44
2021/09/25 03:03:17;;;;;;;7.80;5.38;;;;;;;;;;5011293;28;20046;-47
2021/09/25 03:05:45;;;;;;;7.60;5.30;;;;;;;;;;5011625;28;20038;-45
2021/09/25 03:08:11;;;;;;;6.78;5.15;;;;;;;;;;5011317;28;20076;-43
2021/09/25 03:10:38;;;;;;;7.50;5.03;;;;;;;;;;5011515;28;20054;-43
2021/09/25 03:13:05;;;;;;;6.97;5.30;;;;;;;;;;5011313;28;20474;-43
2021/09/25 03:15:32;;;;;;;7.35;5.30;;;;;;;;;;5011294;28;20046;-43
2021/09/25 03:17:59;;;;;;;7.70;4.95;;;;;;;;;;5011593;28;20100;-43
2021/09/25 03:20:26;;;;;;;6.93;4.93;;;;;;;;;;5011557;28;20471;-42
2021/09/25 03:22:53;;;;;;;6.85;4.93;;;;;;;;;;5013649;28;20100;-43
2021/09/25 03:25:20;;;;;;;6.55;5.32;;;;;;;;;;5014683;28;20121;-43
2021/09/25 03:27:50;;;;;;;6.80;5.03;;;;;;;;;;5015120;28;20084;-43
2021/09/25 03:30:17;;;;;;;7.32;5.03;;;;;;;;;;5015106;28;20100;-43
2021/09/25 03:32:45;;;;;;;8.45;4.90;;;;;;;;;;5015108;28;20133;-46
2021/09/25 03:35:12;;;;;;;6.63;5.07;;;;;;;;;;5014647;28;20046;-45
2021/09/25 03:37:39;;;;;;;7.15;5.10;;;;;;;;;;5014698;28;20129;-46
2021/09/25 03:40:08;;;;;;;9.18;5.15;;;;;;;;;;5014879;28;20077;-42
2021/09/25 03:42:34;;;;;;;6.25;4.97;;;;;;;;;;5014718;28;20149;-44
2021/09/25 03:45:01;;;;;;;5.85;4.78;;;;;;;;;;5028513;28;20132;-42
2021/09/25 03:47:28;;;;;;;6.85;5.22;;;;;;;;;;5030716;28;20068;-43
2021/09/25 03:49:55;;;;;;;6.22;5.07;;;;;;;;;;5014724;28;20096;-43
2021/09/25 03:52:22;;;;;;;6.18;5.10;;;;;;;;;;5014655;28;20058;-44
2021/09/25 03:54:49;;;;;;;6.93;5.07;;;;;;;;;;5013154;28;20472;-45
2021/09/25 03:57:15;;;;;;;6.82;5.05;;;;;;;;;;5014281;28;20510;-44
2021/09/25 03:59:42;;;;;;;6.65;4.90;;;;;;;;;;5031312;28;20486;-43
2021/09/25 04:02:09;;;;;;;6.95;5.50;;;;;;;;;;5039897;28;20128;-45
2021/09/25 04:04:36;;;;;;;7.40;5.68;;;;;;;;;;5033918;28;20120;-47
2021/09/25 04:07:03;;;;;;;6.15;5.03;;;;;;;;;;5027199;28;20620;-45
2021/09/25 04:09:29;;;;;;;6.43;5.15;;;;;;;;;;5014402;28;20100;-43
2021/09/25 04:11:56;;;;;;;6.70;4.90;;;;;;;;;;5014290;28;20049;-42
2021/09/25 04:14:23;;;;;;;8.73;5.55;;;;;;;;;;5014097;28;20208;-42
2021/09/25 04:16:50;;;;;;;8.15;5.18;;;;;;;;;;5013924;28;20051;-43
2021/09/25 04:19:17;;;;;;;6.82;4.95;;;;;;;;;;5014224;28;20423;-43
2021/09/25 04:21:44;;;;;;;9.27;4.95;;;;;;;;;;5013890;28;20078;-44
2021/09/25 04:24:11;;;;;;;9.60;5.20;;;;;;;;;;5013733;28;20092;-44
2021/09/25 04:26:37;;;;;;;6.95;5.05;;;;;;;;;;5013856;28;20191;-42
2021/09/25 04:29:04;;;;;;;6.30;5.15;;;;;;;;;;5013741;28;20082;-43
2021/09/25 04:31:34;;;;;;;6.57;4.88;;;;;;;;;;5013913;28;20080;-42
2021/09/25 04:34:01;;;;;;;6.45;4.90;;;;;;;;;;5013051;28;20046;-44
2021/09/25 04:36:28;;;;;;;7.93;5.38;;;;;;;;;;5013613;28;20133;-43
2021/09/25 04:38:56;;;;;;;6.32;5.07;;;;;;;;;;5014264;28;20486;-42
2021/09/25 04:41:22;;;;;;;7.70;5.57;;;;;;;;;;5012440;28;20133;-45
2021/09/25 04:43:49;;;;;;;7.95;5.70;;;;;;;;;;5017503;28;20069;-42
2021/09/25 04:46:16;;;;;;;7.18;5.30;;;;;;;;;;5030882;28;20061;-42
2021/09/25 04:48:48;;;;;;;7.45;5.65;;;;;;;;;;5033360;28;20033;-44
2021/09/25 04:51:15;;;;;;;6.38;5.15;;;;;;;;;;5033325;28;20124;-45
2021/09/25 04:53:43;;;;;;;6.47;5.05;;;;;;;;;;5029051;28;20129;-43
2021/09/25 04:56:10;;;;;;;7.22;5.28;;;;;;;;;;5013406;28;20041;-43
2021/09/25 04:58:38;;;;;;;7.60;5.20;;;;;;;;;;5013342;28;20084;-44
2021/09/25 05:01:06;;;;;;;6.90;5.45;;;;;;;;;;5013411;28;20121;-47
2021/09/25 05:03:33;;;;;;;5.90;4.47;;;;;;;;;;5013070;28;20045;-43
2021/09/25 05:06:01;;;;;;;6.25;4.88;;;;;;;;;;5012165;28;20096;-44
2021/09/25 05:08:28;;;;;;;7.55;5.75;;;;;;;;;;5013138;28;20147;-44
2021/09/25 05:10:54;;;;;;;8.80;5.13;;;;;;;;;;5013332;28;20120;-44
2021/09/25 05:13:21;;;;;;;8.20;5.32;;;;;;;;;;5012962;28;20050;-43
2021/09/25 05:15:48;;;;;;;6.82;5.00;;;;;;;;;;5013043;28;20054;-44
2021/09/25 05:18:15;;;;;;;7.57;4.80;;;;;;;;;;5012915;28;20053;-44
2021/09/25 05:20:42;;;;;;;7.50;5.50;;;;;;;;;;5028223;28;20074;-42
2021/09/25 05:23:09;;;;;;;6.30;5.10;;;;;;;;;;5012800;28;20392;-43
2021/09/25 05:25:36;;;;;;;7.40;5.38;;;;;;;;;;5012853;28;20129;-45
2021/09/25 05:28:03;;;;;;;8.88;5.50;;;;;;;;;;5012946;28;20069;-43
2021/09/25 05:30:30;;;;;;;8.18;5.05;;;;;;;;;;5012704;28;20038;-43
2021/09/25 05:32:56;;;;;;;7.32;5.05;;;;;;;;;;5012889;28;20511;-44
2021/09/25 05:35:23;;;;;;;7.05;5.00;;;;;;;;;;5012605;28;20464;-45
2021/09/25 05:37:52;;;;;;;7.53;5.20;;;;;;;;;;5012709;28;20045;-44
2021/09/25 05:40:20;;;;;;;7.18;4.70;;;;;;;;;;5013028;28;20068;-43
2021/09/25 05:42:47;;;;;;;6.30;4.65;;;;;;;;;;5013055;28;20455;-45
2021/09/25 05:45:16;;;;;;;6.50;5.00;;;;;;;;;;5027575;28;20033;-43
2021/09/25 05:47:43;;;;;;;7.15;5.72;;;;;;;;;;5015367;28;20034;-44
2021/09/25 05:50:11;;;;;;;8.10;5.05;;;;;;;;;;5012525;28;20088;-44
2021/09/25 05:52:38;;;;;;;7.00;4.95;;;;;;;;;;5012465;28;20561;-46
2021/09/25 05:55:06;;;;;;;9.23;5.65;;;;;;;;;;5012205;28;20046;-43
2021/09/25 05:57:33;;;;;;;8.95;5.25;;;;;;;;;;5012516;28;20053;-43
2021/09/25 06:00:00;;;;;;;8.68;5.82;;;;;;;;;;5012262;28;20152;-45
2021/09/25 06:02:27;;;;;;;7.75;5.35;;;;;;;;;;5012521;28;20439;-44
2021/09/25 06:04:54;;;;;;;9.73;6.22;;;;;;;;;;5011889;28;20042;-43
2021/09/25 06:07:21;;;;;;;7.25;5.00;;;;;;;;;;5012319;28;20121;-44
2021/09/25 06:09:47;;;;;;;6.55;4.95;;;;;;;;;;5012147;28;20107;-43
2021/09/25 06:12:14;;;;;;;7.65;5.13;;;;;;;;;;5012266;28;20403;-47
2021/09/25 06:14:41;;;;;;;9.10;5.30;;;;;;;;;;5012097;28;20054;-44
2021/09/25 06:17:08;;;;;;;8.77;5.20;;;;;;;;;;5011917;28;20046;-45
2021/09/25 06:19:35;;;;;;;7.97;4.90;;;;;;;;;;5010656;28;20069;-48
2021/09/25 06:22:02;;;;;;;8.07;5.47;;;;;;;;;;5011955;28;20129;-46
2021/09/25 06:24:29;;;;;;;7.38;5.22;;;;;;;;;;5012025;28;20499;-47
2021/09/25 06:26:56;;;;;;;7.35;4.93;;;;;;;;;;5024538;28;20471;-43
2021/09/25 06:29:23;;;;;;;7.45;5.05;;;;;;;;;;5011881;28;20116;-44
2021/09/25 06:31:49;;;;;;;7.38;6.13;;;;;;;;;;5012240;28;20049;-46
2021/09/25 06:34:16;;;;;;;8.38;6.28;;;;;;;;;;5011823;28;20096;-44
2021/09/25 06:36:43;;;;;;;7.07;4.60;;;;;;;;;;5011996;28;20038;-43
2021/09/25 06:39:10;;;;;;;8.48;5.15;;;;;;;;;;5011880;28;20397;-46
2021/09/25 06:41:37;;;;;;;10.68;5.38;;;;;;;;;;5010999;28;20041;-44
2021/09/25 06:44:04;;;;;;;8.07;4.70;;;;;;;;;;5017807;28;20110;-46
2021/09/25 06:46:31;;;;;;;6.65;4.60;;;;;;;;;;5031336;28;20083;-45
2021/09/25 06:48:58;;;;;;;6.85;4.20;;;;;;;;;;5013653;28;20042;-44
2021/09/25 06:51:25;;;;;;;7.97;4.40;;;;;;;;;;5011781;28;20074;-43
2021/09/25 06:53:51;;;;;;;6.13;4.75;;;;;;;;;;5012675;28;20046;-44
2021/09/25 06:56:18;;;;;;;6.68;4.72;;;;;;;;;;5011244;28;20579;-48
2021/09/25 06:58:45;;;;;;;6.65;4.90;;;;;;;;;;5031185;28;20107;-44
2021/09/25 07:01:12;;;;;;;5.18;4.03;;;;;;;;;;5009515;28;20506;-43
2021/09/25 07:03:39;;;;;;;5.72;4.47;;;;;;;;;;5053715;28;20052;-44
2021/09/25 07:06:07;;;;;;;9.07;4.82;;;;;;;;;;5051012;28;20051;-43
2021/09/25 07:08:34;;;;;;;8.35;4.35;;;;;;;;;;5042463;28;20042;-48
2021/09/25 07:11:01;;;;;;;5.60;4.28;;;;;;;;;;5035458;28;20037;-44
2021/09/25 07:13:27;;;;;;;5.93;4.53;;;;;;;;;;5035074;28;20046;-49
2021/09/25 07:15:54;;;;;;;7.20;4.28;;;;;;;;;;5032695;28;20111;-45
2021/09/25 07:18:21;;;;;;;7.38;4.72;;;;;;;;;;5035064;28;20302;-44
2021/09/25 07:20:48;;;;;;;5.90;4.20;;;;;;;;;;5033852;28;20050;-46
2021/09/25 07:23:15;;;;;;;6.03;4.57;;;;;;;;;;5031047;28;20123;-47
2021/09/25 07:25:42;;;;;;;9.60;5.68;;;;;;;;;;5034443;28;20091;-44
2021/09/25 07:28:09;;;;;;;5.82;4.28;;;;;;;;;;5034697;28;20048;-42
2021/09/25 07:30:37;;;;;;;6.70;4.45;;;;;;;;;;5033775;28;20213;-43
2021/09/25 07:33:05;;;;;;;14.80;4.30;;;;;;;;;;5032447;28;20580;-44
2021/09/25 07:35:34;;;;;;;6.65;4.63;;;;;;;;;;5034688;28;20091;-43
2021/09/25 07:38:02;;;;;;;6.03;4.78;;;;;;;;;;5024996;28;20052;-46
2021/09/25 07:40:29;;;;;;;8.45;4.18;;;;;;;;;;5015264;28;20046;-48
2021/09/25 07:42:56;;;;;;;9.50;5.25;;;;;;;;;;5014709;28;20787;-44
2021/09/25 07:45:22;;;;;;;6.35;4.57;;;;;;;;;;5013511;28;20069;-44
2021/09/25 07:47:50;;;;;;;5.95;4.50;;;;;;;;;;5028643;28;20108;-44
2021/09/25 07:50:16;;;;;;;9.57;6.03;;;;;;;;;;5014862;28;20041;-44
2021/09/25 07:52:47;;;;;;;8.43;4.97;;;;;;;;;;5014630;28;20539;-42
2021/09/25 07:55:20;;;;;;;5.82;4.53;;;;;;;;;;5012938;28;20060;-43
2021/09/25 07:57:47;;;;;;;8.05;4.60;;;;;;;;;;5014884;28;20046;-43
2021/09/25 08:00:16;;;;;;;6.85;4.60;;;;;;;;;;5014331;28;20516;-43
2021/09/25 08:02:43;;;;;;;5.85;4.32;;;;;;;;;;5014433;28;20066;-44
2021/09/25 08:05:11;;;;;;;8.25;4.40;;;;;;;;;;5014330;28;20123;-46
2021/09/25 08:07:38;;;;;;;6.90;4.75;;;;;;;;;;5013245;28;20062;-43
2021/09/25 08:10:06;;;;;;;8.00;4.47;;;;;;;;;;5013754;28;20041;-44
2021/09/25 08:12:33;;;;;;;6.03;4.38;;;;;;;;;;5014327;28;20096;-45
2021/09/25 08:15:00;;;;;;;5.90;4.30;;;;;;;;;;5014002;28;20500;-43
2021/09/25 08:17:27;;;;;;;6.70;4.32;;;;;;;;;;5026589;28;20060;-46
2021/09/25 08:19:54;;;;;;;8.20;4.10;;;;;;;;;;5016106;28;20103;-44
2021/09/25 08:22:21;;;;;;;7.43;3.97;;;;;;;;;;5031462;28;20091;-44
2021/09/25 08:24:47;;;;;;;5.78;3.95;;;;;;;;;;5031961;28;20076;-43
2021/09/25 08:27:14;;;;;;;6.93;4.13;;;;;;;;;;5033599;28;20502;-43
2021/09/25 08:29:41;;;;;;;6.63;4.38;;;;;;;;;;5019278;28;20514;-44
2021/09/25 08:32:08;;;;;;;5.32;3.90;;;;;;;;;;5017584;28;20561;-42
2021/09/25 08:34:35;;;;;;;5.53;4.05;;;;;;;;;;5013670;28;20076;-45
2021/09/25 08:37:03;;;;;;;5.45;4.20;;;;;;;;;;5013819;28;20042;-44
2021/09/25 08:39:30;;;;;;;6.28;3.90;;;;;;;;;;5013828;28;20096;-42
2021/09/25 08:41:57;;;;;;;6.55;3.90;;;;;;;;;;5012666;28;20474;-42
2021/09/25 08:44:24;;;;;;;6.65;3.90;;;;;;;;;;5019114;28;20053;-44
2021/09/25 08:46:52;;;;;;;11.07;5.25;;;;;;;;;;5032581;28;20065;-44
2021/09/25 08:49:19;;;;;;;6.00;4.05;;;;;;;;;;5030696;28;20041;-44
2021/09/25 08:51:46;;;;;;;5.90;3.88;;;;;;;;;;5031643;28;20585;-44
2021/09/25 08:54:13;;;;;;;6.55;3.95;;;;;;;;;;5020143;28;20037;-44
2021/09/25 08:56:40;;;;;;;8.85;3.70;;;;;;;;;;5033381;28;20107;-43
2021/09/25 08:59:07;;;;;;;7.97;3.38;;;;;;;;;;5031468;28;20041;-46
2021/09/25 09:01:34;;;;;;;5.85;3.72;;;;;;;;;;5032113;28;20045;-44
2021/09/25 09:04:03;;;;;;;8.50;3.50;;;;;;;;;;5031211;28;20049;-43
2021/09/25 09:06:31;;;;;;;6.22;5.30;;;;;;;;;;5032175;28;20087;-44
2021/09/25 09:08:59;;;;;;;7.88;3.92;;;;;;;;;;5031492;28;20552;-47
2021/09/25 09:11:26;;;;;;;5.80;4.20;;;;;;;;;;5030715;28;20072;-45
2021/09/25 09:13:55;;;;;;;5.75;3.67;;;;;;;;;;5031805;28;20083;-45
2021/09/25 09:16:22;;;;;;;5.70;3.90;;;;;;;;;;5032419;28;20045;-45
2021/09/25 09:18:50;;;;;;;5.38;4.05;;;;;;;;;;5032588;28;20155;-45
2021/09/25 09:21:19;;;;;;;6.20;4.22;;;;;;;;;;5033136;28;20045;-45
2021/09/25 09:23:48;;;;;;;6.13;3.95;;;;;;;;;;5032983;28;20406;-43
2021/09/25 09:26:16;;;;;;;6.43;4.28;;;;;;;;;;5029491;28;20136;-44
2021/09/25 09:28:44;;;;;;;5.63;4.05;;;;;;;;;;5029402;28;20571;-44
2021/09/25 09:31:11;;;;;;;6.60;4.28;;;;;;;;;;5033475;28;20514;-43
2021/09/25 09:33:41;;;;;;;6.35;4.30;;;;;;;;;;5031486;28;20037;-43
2021/09/25 09:36:11;;;;;;;5.57;4.60;;;;;;;;;;5033750;28;20041;-44
2021/09/25 09:38:42;;;;;;;7.43;4.00;;;;;;;;;;5015819;28;20042;-46
2021/09/25 09:41:09;;;;;;;6.20;4.15;;;;;;;;;;5013277;28;20056;-43
2021/09/25 09:43:37;;;;;;;10.43;5.00;;;;;;;;;;5028800;28;20025;-44
2021/09/25 09:46:04;;;;;;;6.53;4.75;;;;;;;;;;5056730;22;20324;-42
2021/09/25 09:48:30;;;;;;;7.15;4.88;;;;;;;;;;5045091;28;20095;-44
2021/09/25 09:50:58;;;;;;;5.65;4.05;;;;;;;;;;5043729;28;20041;-43
2021/09/25 09:53:24;;;;;;;8.40;4.72;;;;;;;;;;5042381;28;20049;-47
2021/09/25 09:55:51;;;;;;;7.20;4.97;;;;;;;;;;5051893;28;20067;-43
2021/09/25 09:58:18;;;;;;;5.78;4.10;;;;;;;;;;5041549;28;20072;-47
2021/09/25 10:00:45;;;;;;;7.60;4.05;;;;;;;;;;5046232;28;20532;-46
2021/09/25 10:03:12;;;;;;;5.03;3.65;;;;;;;;;;5063236;28;20056;-43
2021/09/25 10:05:40;;;;;;;5.22;4.07;;;;;;;;;;5066677;28;20342;-45
2021/09/25 10:08:07;;;;;;;4.85;3.45;;;;;;;;;;5053355;28;20044;-47
2021/09/25 10:10:35;;;;;;;4.88;3.78;;;;;;;;;;5065084;28;20037;-47
2021/09/25 10:13:03;;;;;;;7.25;3.80;;;;;;;;;;5060219;28;20053;-48
2021/09/25 10:15:30;;;;;;;5.75;3.97;;;;;;;;;;5046800;28;20049;-48
2021/09/25 10:17:57;;;;;;;5.03;3.40;;;;;;;;;;5064358;28;20063;-46
2021/09/25 10:20:24;;;;;;;5.55;4.20;;;;;;;;;;5055256;28;20128;-47
2021/09/25 10:22:51;;;;;;;4.75;3.50;;;;;;;;;;5062620;28;20120;-45
2021/09/25 10:25:18;;;;;;;4.88;3.53;;;;;;;;;;5051838;28;20075;-46
2021/09/25 10:27:45;;;;;;;6.78;4.85;;;;;;;;;;5066077;28;20114;-47
2021/09/25 10:30:13;;;;;;;10.02;6.47;;;;;;;;;;5040234;28;20067;-45
2021/09/25 10:32:40;;;;;;;5.47;3.90;;;;;;;;;;5063384;28;20095;-46
2021/09/25 10:35:20;;;;;;;6.45;4.35;;;;;;;;;;5049985;28;20455;-45
2021/09/25 10:37:47;;;;;;;5.72;3.72;;;;;;;;;;5036498;28;20133;-48
2021/09/25 10:40:38;;;;;;;5.25;3.90;;;;;;;;;;5036303;28;20352;-48
2021/09/25 10:43:28;;;;;;;6.13;4.50;;;;;;;;;;5060223;28;20530;-47
2021/09/25 10:45:56;;;;;;;7.78;3.80;;;;;;;;;;5039523;28;20099;-46
2021/09/25 10:48:23;;;;;;;6.03;4.38;;;;;;;;;;5067953;28;20572;-46
2021/09/25 10:51:11;;;;;;;6.85;3.78;;;;;;;;;;5068513;28;20059;-46
2021/09/25 10:53:39;;;;;;;7.30;3.30;;;;;;;;;;5024743;28;20056;-46
2021/09/25 10:56:07;;;;;;;3.72;3.08;;;;;;;;;;5050479;28;20106;-48
2021/09/25 10:58:37;;;;;;;5.45;3.30;;;;;;;;;;5047195;28;20041;-46
2021/09/25 11:01:12;;;;;;;4.82;3.10;;;;;;;;;;5030891;28;20102;-47
2021/09/25 11:03:48;;;;;;;4.70;3.33;;;;;;;;;;5029649;28;20124;-47
2021/09/25 11:06:23;;;;;;;6.15;3.17;;;;;;;;;;5030993;28;20103;-44
2021/09/25 11:08:50;;;;;;;10.52;8.02;;;;;;;;;;5040395;28;20045;-44
2021/09/25 11:11:18;;;;;;;6.97;3.83;;;;;;;;;;5038799;28;20439;-46
2021/09/25 11:14:05;;;;;;;5.72;3.50;;;;;;;;;;5049980;28;20049;-46
2021/09/25 11:16:47;;;;;;;4.30;3.35;;;;;;;;;;5045614;28;20044;-46
2021/09/25 11:19:21;;;;;;;3.90;3.05;;;;;;;;;;5044635;28;20475;-45
2021/09/25 11:21:56;;;;;;;6.35;2.83;;;;;;;;;;5050496;28;20465;-44
2021/09/25 11:24:24;;;;;;;4.28;3.13;;;;;;;;;;5050106;28;20037;-42
2021/09/25 11:26:51;;;;;;;4.38;2.50;;;;;;;;;;5038294;28;20079;-43
2021/09/25 11:29:18;;;;;;;5.00;2.92;;;;;;;;;;5030323;28;20457;-43
2021/09/25 11:31:48;;;;;;;4.20;3.00;;;;;;;;;;5030484;28;20068;-47
2021/09/25 11:34:22;;;;;;;5.05;2.80;;;;;;;;;;5038724;28;20037;-44
2021/09/25 11:36:53;;;;;;;3.88;2.80;;;;;;;;;;5046574;28;20076;-46
2021/09/25 11:39:23;;;;;;;4.95;2.50;;;;;;;;;;5030734;28;20128;-46
2021/09/25 11:42:09;;;;;;;3.42;2.30;;;;;;;;;;5029060;28;20080;-44
2021/09/25 11:44:43;;;;;;;4.03;2.40;;;;;;;;;;5032335;28;20041;-43
2021/09/25 11:47:10;;;;;;;3.88;2.72;;;;;;;;;;5033983;28;20455;-43
2021/09/25 11:49:37;;;;;;;3.60;2.60;;;;;;;;;;5055427;28;20037;-44
2021/09/25 11:52:04;;;;;;;4.50;2.70;;;;;;;;;;5041776;28;20490;-45
2021/09/25 11:54:31;;;;;;;4.97;2.60;;;;;;;;;;5053285;28;20139;-42
2021/09/25 11:56:58;;;;;;;4.03;2.65;;;;;;;;;;5046644;28;20041;-42
2021/09/25 11:59:26;;;;;;;3.83;2.35;;;;;;;;;;5042108;28;20080;-42
2021/09/25 12:01:53;;;;;;;4.88;2.65;;;;;;;;;;5052797;28;20132;-41
2021/09/25 12:04:36;;;;;;;5.18;2.63;;;;;;;;;;5052945;28;20083;-46
2021/09/25 12:07:02;;;;;;;3.00;2.55;;;;;;;;;;5052325;28;20091;-45
2021/09/25 12:09:42;;;;;;;8.60;2.80;;;;;;;;;;5044353;28;20474;-43
2021/09/25 12:12:09;;;;;;;4.28;2.65;;;;;;;;;;5033953;28;20045;-44
2021/09/25 12:14:40;;;;;;;5.35;2.85;;;;;;;;;;5047276;28;20091;-45
2021/09/25 12:17:07;;;;;;;3.80;2.50;;;;;;;;;;5049579;28;20033;-44
2021/09/25 12:19:34;;;;;;;4.40;2.83;;;;;;;;;;5052652;28;20216;-45
2021/09/25 12:22:01;;;;;;;6.07;2.88;;;;;;;;;;5052693;28;20127;-48
2021/09/25 12:24:29;;;;;;;4.07;2.60;;;;;;;;;;5048296;28;20042;-47
2021/09/25 12:26:56;;;;;;;3.50;2.75;;;;;;;;;;5047785;28;20522;-48
2021/09/25 12:29:24;;;;;;;4.20;2.83;;;;;;;;;;5043450;28;20047;-49
2021/09/25 12:32:01;;;;;;;4.80;2.65;;;;;;;;;;5047407;28;20584;-48
2021/09/25 12:34:28;;;;;;;5.85;2.63;;;;;;;;;;5052108;28;20045;-45
2021/09/25 12:36:57;;;;;;;5.03;2.58;;;;;;;;;;5050673;28;20056;-47
2021/09/25 12:39:26;;;;;;;4.28;2.95;;;;;;;;;;5043393;28;20049;-49
2021/09/25 12:42:03;;;;;;;3.22;2.78;;;;;;;;;;5051473;28;20068;-48
2021/09/25 12:44:36;;;;;;;3.45;2.60;;;;;;;;;;5052524;28;20128;-49
2021/09/25 12:47:03;;;;;;;3.42;2.67;;;;;;;;;;5044238;28;20575;-45
2021/09/25 12:49:34;;;;;;;4.10;2.92;;;;;;;;;;5052562;28;20347;-45
2021/09/25 12:52:08;;;;;;;4.45;2.65;;;;;;;;;;5052827;28;20065;-46
2021/09/25 12:54:36;;;;;;;4.18;2.60;;;;;;;;;;5052123;28;20077;-46
2021/09/25 12:57:03;;;;;;;3.30;2.60;;;;;;;;;;5039687;28;20052;-46
2021/09/25 12:59:35;;;;;;;4.88;2.30;;;;;;;;;;5041853;28;20042;-46
2021/09/25 13:02:03;;;;;;;4.03;2.83;;;;;;;;;;5047185;28;20579;-49
2021/09/25 13:04:36;;;;;;;3.88;2.67;;;;;;;;;;5051711;28;20131;-47
2021/09/25 13:07:03;;;;;;;3.72;2.72;;;;;;;;;;5051611;28;20033;-46
2021/09/25 13:09:43;;;;;;;4.15;2.92;;;;;;;;;;5032016;28;20071;-47
2021/09/25 13:12:23;;;;;;;4.90;2.70;;;;;;;;;;5032096;28;20487;-47
2021/09/25 13:15:07;;;;;;;5.72;2.90;;;;;;;;;;5031687;28;20132;-50
2021/09/25 13:17:35;;;;;;;4.03;2.92;;;;;;;;;;5032248;28;20080;-47
2021/09/25 13:20:06;;;;;;;3.58;2.70;;;;;;;;;;5032440;28;20063;-50
2021/09/25 13:22:33;;;;;;;7.00;3.67;;;;;;;;;;5032161;28;20065;-47
2021/09/25 13:25:00;;;;;;;7.72;2.90;;;;;;;;;;5031347;28;20041;-47
2021/09/25 13:27:28;;;;;;;3.10;2.40;;;;;;;;;;5031540;28;20128;-46
2021/09/25 13:29:55;;;;;;;3.05;2.35;;;;;;;;;;5031435;28;20076;-46
2021/09/25 13:32:22;;;;;;;6.18;3.10;;;;;;;;;;5032313;28;20045;-46
2021/09/25 13:34:49;;;;;;;3.63;2.80;;;;;;;;;;5031470;28;20144;-45
2021/09/25 13:37:21;;;;;;;3.20;2.58;;;;;;;;;;5031574;28;20132;-46
2021/09/25 13:39:48;;;;;;;4.85;3.05;;;;;;;;;;5031884;28;20132;-47
2021/09/25 13:42:15;;;;;;;3.83;2.75;;;;;;;;;;5031859;28;20500;-44
2021/09/25 13:44:44;;;;;;;5.25;2.80;;;;;;;;;;5031050;28;20491;-48
2021/09/25 13:47:11;;;;;;;3.75;2.90;;;;;;;;;;5031190;28;20476;-45
2021/09/25 13:49:39;;;;;;;3.30;2.50;;;;;;;;;;5031458;28;20446;-46
2021/09/25 13:52:06;;;;;;;4.43;2.92;;;;;;;;;;5031173;28;20617;-46
2021/09/25 13:54:33;;;;;;;6.50;3.33;;;;;;;;;;5039530;28;20040;-46
2021/09/25 13:57:00;;;;;;;4.32;2.92;;;;;;;;;;5046901;28;20048;-47
2021/09/25 13:59:27;;;;;;;4.85;2.70;;;;;;;;;;5043506;28;20231;-45
2021/09/25 14:01:54;;;;;;;5.55;3.08;;;;;;;;;;5041016;28;20037;-49
2021/09/25 14:04:21;;;;;;;5.38;3.00;;;;;;;;;;5049570;28;20041;-46
2021/09/25 14:06:47;;;;;;;3.78;2.80;;;;;;;;;;5049114;28;20048;-49
2021/09/25 14:09:14;;;;;;;4.60;3.00;;;;;;;;;;5049930;28;20065;-47
2021/09/25 14:11:42;;;;;;;4.55;3.08;;;;;;;;;;5050327;28;20041;-45
2021/09/25 14:14:08;;;;;;;4.03;3.33;;;;;;;;;;5050100;28;20512;-47
2021/09/25 14:16:35;;;;;;;4.03;2.58;;;;;;;;;;5035953;28;20060;-47
2021/09/25 14:19:05;;;;;;;3.45;2.50;;;;;;;;;;5050926;28;20457;-48
2021/09/25 14:21:35;;;;;;;3.35;2.60;;;;;;;;;;5050429;28;20532;-45
2021/09/25 14:24:06;;;;;;;5.60;3.30;;;;;;;;;;5041957;28;20414;-48
2021/09/25 14:26:34;;;;;;;5.57;2.70;;;;;;;;;;5040240;28;20091;-45
2021/09/25 14:29:06;;;;;;;4.75;2.80;;;;;;;;;;5044042;28;20041;-45
2021/09/25 14:31:35;;;;;;;4.25;2.92;;;;;;;;;;5041136;28;20053;-47
2021/09/25 14:34:02;;;;;;;3.88;2.63;;;;;;;;;;5038603;28;20500;-46
2021/09/25 14:36:29;;;;;;;4.30;3.08;;;;;;;;;;5045244;28;20073;-46
2021/09/25 14:38:56;;;;;;;4.88;2.97;;;;;;;;;;5034243;28;20065;-48
2021/09/25 14:41:22;;;;;;;3.80;2.60;;;;;;;;;;5040838;28;20064;-47
2021/09/25 14:43:49;;;;;;;4.25;2.70;;;;;;;;;;5055113;28;20049;-46
2021/09/25 14:46:16;;;;;;;5.68;2.78;;;;;;;;;;5055428;28;20094;-47
2021/09/25 14:48:43;;;;;;;4.07;3.10;;;;;;;;;;5054733;28;20033;-50